Time;durP1;ratioP1;P1;durP2;ratioP2;P2;SDS_P1;SDS_P2;PMS_P1;PMS_P2;Temp;Humidity;BMP_temperature;BMP_pressure;BME280_temperature;BME280_humidity;BME280_pressure;Samples;Min_cycle;Max_cycle;Signal;HPM_P1;HPM_P2
2022/10/06 00:00:15;;;;;;;8.90;5.00;;;;;;;11.35;77.03;100267.98;215685;1276;142442;-67
2022/10/06 00:05:38;;;;;;;12.20;5.00;;;;;;;11.37;77.16;100267.37;215396;1276;140966;-65
2022/10/06 00:10:41;;;;;;;5.00;4.20;;;;;;;11.38;77.23;100269.37;215538;1276;140898;-65
2022/10/06 00:15:43;;;;;;;3.60;3.30;;;;;;;11.40;77.18;100264.95;215338;1276;140296;-64
2022/10/06 00:20:53;;;;;;;5.00;4.30;;;;;;;11.41;77.36;100264.11;215522;1276;142913;-65
2022/10/06 00:25:57;;;;;;;5.70;4.30;;;;;;;11.40;77.27;100262.45;215469;1276;142307;-65
2022/10/06 00:31:01;;;;;;;10.60;4.60;;;;;;;11.35;77.35;100257.82;215555;1276;141467;-65
2022/10/06 00:36:04;;;;;;;6.30;5.00;;;;;;;11.31;77.53;100252.65;215591;1276;141601;-67
2022/10/06 00:41:06;;;;;;;4.30;3.80;;;;;;;11.32;77.75;100249.05;215568;1276;140855;-67
2022/10/06 00:46:23;;;;;;;7.20;4.60;;;;;;;11.33;77.67;100248.16;215532;1276;140988;-66
2022/10/06 00:51:26;;;;;;;5.80;4.20;;;;;;;11.27;77.73;100253.36;215440;1276;140691;-66
2022/10/06 00:56:28;;;;;;;5.10;3.80;;;;;;;11.25;77.80;100250.42;214077;1276;140419;-64
2022/10/06 01:01:32;;;;;;;4.60;3.70;;;;;;;11.24;77.84;100244.45;214272;1276;141685;-65
2022/10/06 01:06:46;;;;;;;4.60;3.80;;;;;;;11.19;77.93;100245.02;215644;1276;140862;-66
2022/10/06 01:11:50;;;;;;;4.90;3.90;;;;;;;11.19;78.17;100252.08;215256;1276;141640;-65
2022/10/06 01:16:57;;;;;;;7.20;5.40;;;;;;;11.24;78.10;100249.95;215403;1276;141269;-66
2022/10/06 01:22:04;;;;;;;6.30;3.60;;;;;;;11.23;78.25;100245.58;213469;1276;141457;-66
2022/10/06 01:27:10;;;;;;;31.60;5.30;;;;;;;11.21;78.30;100241.98;215454;1277;139711;-66
2022/10/06 01:32:13;;;;;;;8.10;4.00;;;;;;;11.20;78.22;100243.67;215330;1276;141383;-68
2022/10/06 01:37:16;;;;;;;6.90;4.80;;;;;;;11.21;78.19;100241.66;215336;1277;141272;-65
2022/10/06 01:42:18;;;;;;;6.00;4.40;;;;;;;11.21;78.57;100237.98;215703;1277;141243;-69
2022/10/06 01:47:20;;;;;;;4.50;4.10;;;;;;;11.24;78.42;100238.13;215325;1277;140716;-65
2022/10/06 01:52:22;;;;;;;8.50;5.60;;;;;;;11.26;78.39;100236.46;215528;1277;140579;-64
2022/10/06 01:57:25;;;;;;;2.60;2.40;;;;;;;11.31;78.58;100239.91;215585;1276;141103;-65
2022/10/06 02:02:30;;;;;;;5.70;3.70;;;;;;;11.34;78.62;100244.54;215559;1276;141426;-65
2022/10/06 02:07:34;;;;;;;4.20;3.80;;;;;;;11.33;78.68;100244.10;215566;1276;141011;-65
2022/10/06 02:12:37;;;;;;;4.80;2.90;;;;;;;11.33;78.56;100247.83;215492;1277;140857;-66
2022/10/06 02:17:40;;;;;;;6.30;3.70;;;;;;;11.33;78.69;100253.92;215622;1276;140848;-67
2022/10/06 02:22:43;;;;;;;4.30;3.80;;;;;;;11.32;78.77;100255.45;215721;1276;140949;-66
2022/10/06 02:27:47;;;;;;;4.20;2.90;;;;;;;11.35;78.88;100260.59;215762;1276;140726;-66
2022/10/06 02:32:50;;;;;;;5.40;3.50;;;;;;;11.35;78.71;100263.58;215478;1277;141545;-65
2022/10/06 02:37:53;;;;;;;3.50;2.70;;;;;;;11.35;78.58;100264.19;215649;1276;142744;-66
2022/10/06 02:42:57;;;;;;;4.20;3.70;;;;;;;11.38;78.62;100266.98;215035;1276;141417;-66
2022/10/06 02:48:00;;;;;;;3.00;2.70;;;;;;;11.44;78.90;100267.23;215667;1276;141105;-66
2022/10/06 02:53:07;;;;;;;5.00;4.30;;;;;;;11.48;78.69;100270.63;215609;1276;140916;-66
2022/10/06 02:58:11;;;;;;;13.40;4.20;;;;;;;11.50;78.88;100276.70;215465;1276;140332;-65
2022/10/06 03:03:13;;;;;;;6.90;3.20;;;;;;;11.50;78.75;100281.77;215681;1274;140438;-66
2022/10/06 03:08:15;;;;;;;4.40;4.00;;;;;;;11.51;78.53;100286.08;214226;1276;143102;-65
2022/10/06 03:13:22;;;;;;;9.20;4.80;;;;;;;11.56;78.84;100291.35;215656;1276;141123;-68
2022/10/06 03:18:25;;;;;;;9.70;4.40;;;;;;;11.57;78.70;100290.84;215776;1276;141702;-68
2022/10/06 03:23:28;;;;;;;11.70;4.10;;;;;;;11.53;78.54;100289.70;215864;1276;139932;-68
2022/10/06 03:28:31;;;;;;;2.90;2.70;;;;;;;11.51;78.59;100297.08;215577;1276;140881;-68
2022/10/06 03:33:35;;;;;;;3.90;3.50;;;;;;;11.53;78.71;100300.64;214464;1276;140410;-67
2022/10/06 03:38:38;;;;;;;6.90;3.70;;;;;;;11.54;78.61;100303.99;215675;1276;139889;-67
2022/10/06 03:43:43;;;;;;;3.80;3.40;;;;;;;11.50;78.62;100306.34;212432;1276;140962;-65
2022/10/06 03:48:48;;;;;;;4.50;3.80;;;;;;;11.48;78.59;100315.57;215545;1275;140758;-67
2022/10/06 03:53:53;;;;;;;12.20;4.00;;;;;;;11.46;78.62;100313.12;215715;1276;141195;-67
2022/10/06 03:59:00;;;;;;;6.20;4.20;;;;;;;11.45;78.71;100315.51;215732;1276;141089;-67
2022/10/06 04:04:05;;;;;;;8.10;3.60;;;;;;;11.45;78.82;100318.06;215151;1275;140856;-65
2022/10/06 04:09:11;;;;;;;4.50;3.90;;;;;;;11.42;78.82;100325.83;215789;1275;140629;-65
2022/10/06 04:14:17;;;;;;;6.70;4.50;;;;;;;11.41;78.74;100329.78;215449;1276;141653;-66
2022/10/06 04:19:20;;;;;;;3.70;3.30;;;;;;;11.41;78.83;100332.31;215541;1276;141852;-66
2022/10/06 04:24:23;;;;;;;8.10;4.10;;;;;;;11.42;78.81;100338.47;215865;1276;141058;-66
2022/10/06 04:29:26;;;;;;;5.90;5.00;;;;;;;11.44;78.85;100343.33;215758;1275;142328;-66
2022/10/06 04:34:31;;;;;;;3.80;3.40;;;;;;;11.44;78.75;100345.02;215518;1276;142630;-66
2022/10/06 04:39:36;;;;;;;3.40;3.10;;;;;;;11.43;78.70;100353.61;215565;1276;154642;-66
2022/10/06 04:44:40;;;;;;;5.00;4.00;;;;;;;11.41;78.87;100353.51;215526;1275;141187;-66
2022/10/06 04:49:43;;;;;;;3.30;3.00;;;;;;;11.40;79.05;100357.68;215485;1276;141638;-66
2022/10/06 04:54:46;;;;;;;6.40;3.90;;;;;;;11.40;78.97;100357.67;215857;1276;140442;-66
2022/10/06 05:05:16;;;;;;;5.20;3.30;;;;;;;11.51;79.27;100370.81;215659;1275;142267;-66
2022/10/06 05:10:19;;;;;;;4.30;3.40;;;;;;;11.53;79.25;100368.36;215775;1275;142176;-66
2022/10/06 05:15:21;;;;;;;2.60;2.40;;;;;;;11.58;79.47;100372.98;215526;1275;141603;-66
2022/10/06 05:20:24;;;;;;;8.60;4.20;;;;;;;11.64;79.50;100378.21;212803;1276;144517;-65
2022/10/06 05:25:27;;;;;;;8.20;4.70;;;;;;;11.75;79.50;100385.52;215455;1277;141267;-65
2022/10/06 05:30:30;;;;;;;8.30;4.20;;;;;;;11.87;79.87;100394.15;215767;1276;142289;-66
2022/10/06 05:35:32;;;;;;;5.20;3.80;;;;;;;12.02;79.77;100403.13;215227;1276;140678;-66
2022/10/06 05:40:36;;;;;;;4.40;4.00;;;;;;;12.12;80.05;100411.95;215440;1276;141279;-66
2022/10/06 05:45:39;;;;;;;5.10;4.50;;;;;;;12.24;79.79;100421.60;215680;1273;140887;-66
2022/10/06 05:50:42;;;;;;;4.50;4.10;;;;;;;12.33;80.05;100422.89;214653;1276;141400;-65
2022/10/06 05:55:45;;;;;;;4.50;4.00;;;;;;;12.46;79.91;100437.23;215297;1276;140736;-66
2022/10/06 06:00:48;;;;;;;5.70;4.00;;;;;;;12.57;80.07;100445.02;215677;1275;140593;-66
2022/10/06 06:05:51;;;;;;;10.10;3.70;;;;;;;12.66;79.80;100456.70;214661;1276;141483;-66
2022/10/06 06:10:54;;;;;;;3.90;3.50;;;;;;;12.76;79.89;100462.42;215607;1276;141537;-66
2022/10/06 06:15:59;;;;;;;5.00;3.70;;;;;;;12.88;79.81;100472.42;215566;1276;141197;-66
2022/10/06 06:21:05;;;;;;;3.50;3.10;;;;;;;13.00;79.69;100477.48;215595;1276;140766;-66
2022/10/06 06:26:11;;;;;;;5.20;3.90;;;;;;;13.06;79.36;100481.42;215588;1276;140815;-66
2022/10/06 06:31:22;;;;;;;4.20;3.70;;;;;;;13.14;79.71;100493.72;215678;1275;141730;-66
2022/10/06 06:36:40;;;;;;;5.50;3.60;;;;;;;13.30;79.68;100505.23;215617;1276;140797;-66
2022/10/06 06:41:45;;;;;;;3.80;3.40;;;;;;;13.43;79.55;100509.66;215742;1276;141293;-66
2022/10/06 06:46:48;;;;;;;4.70;3.70;;;;;;;13.55;79.49;100517.50;215517;1276;140717;-66
2022/10/06 06:51:53;;;;;;;13.80;5.70;;;;;;;13.69;79.35;100524.25;215635;1276;140750;-66
2022/10/06 06:56:56;;;;;;;6.00;3.90;;;;;;;13.84;79.10;100529.25;215655;1276;142227;-66
2022/10/06 07:01:59;;;;;;;4.50;4.10;;;;;;;13.95;79.07;100532.02;215489;1275;142662;-66
2022/10/06 07:07:03;;;;;;;15.80;4.60;;;;;;;14.04;78.92;100536.94;215490;1276;141490;-66
2022/10/06 07:12:05;;;;;;;5.40;4.30;;;;;;;14.13;78.80;100542.13;215793;1274;140766;-66
2022/10/06 07:27:50;;;;;;;4.70;3.60;;;;;;;14.59;78.38;100545.98;214979;1275;141557;-66
2022/10/06 07:32:54;;;;;;;4.60;3.90;;;;;;;14.89;78.40;100554.42;215679;1276;142497;-66
2022/10/06 07:38:04;;;;;;;4.00;3.70;;;;;;;15.33;78.31;100557.98;215447;1276;141603;-66
2022/10/06 07:43:10;;;;;;;5.70;4.40;;;;;;;15.86;78.38;100564.77;214094;1275;142412;-66
2022/10/06 07:48:18;;;;;;;6.70;4.20;;;;;;;16.65;78.25;100566.55;215728;1276;141042;-67
2022/10/06 07:53:26;;;;;;;4.60;4.20;;;;;;;17.05;77.29;100571.63;214034;1276;144234;-66
2022/10/06 07:58:31;;;;;;;4.60;4.20;;;;;;;17.53;77.07;100573.80;215562;1276;143248;-66
2022/10/06 08:03:36;;;;;;;11.80;4.30;;;;;;;18.04;76.20;100577.81;215571;1275;141333;-66
2022/10/06 08:08:44;;;;;;;5.60;3.60;;;;;;;18.43;75.60;100587.61;215487;1274;140936;-67
2022/10/06 08:13:55;;;;;;;5.40;3.80;;;;;;;18.75;74.80;100592.91;215420;1275;142093;-67
2022/10/06 08:18:58;;;;;;;4.80;3.40;;;;;;;19.03;74.02;100595.46;215711;1275;140936;-67
2022/10/06 08:24:00;;;;;;;3.60;3.20;;;;;;;19.20;73.18;100604.39;215799;1276;141972;-67
2022/10/06 08:29:03;;;;;;;5.10;3.60;;;;;;;19.39;72.58;100605.08;215708;1276;140415;-67
2022/10/06 08:34:07;;;;;;;4.80;3.00;;;;;;;19.62;72.25;100611.67;215549;1275;140995;-67
2022/10/06 08:39:15;;;;;;;6.40;3.50;;;;;;;19.88;71.46;100617.63;215556;1276;142659;-67
2022/10/06 08:44:29;;;;;;;3.70;2.70;;;;;;;20.17;71.33;100624.47;215533;1276;141451;-67
2022/10/06 08:49:43;;;;;;;6.20;3.50;;;;;;;20.35;70.53;100627.48;215376;1275;141004;-67
2022/10/06 08:54:57;;;;;;;6.20;3.50;;;;;;;20.12;69.35;100635.79;215618;1275;140550;-67
2022/10/06 09:00:02;;;;;;;3.20;2.40;;;;;;;19.78;68.90;100646.38;215734;1275;140922;-67
2022/10/06 09:05:06;;;;;;;3.50;3.20;;;;;;;19.45;68.68;100657.06;215717;1275;140947;-67
2022/10/06 09:10:18;;;;;;;4.30;3.20;;;;;;;19.10;68.59;100665.57;215692;1276;141165;-67
2022/10/06 09:15:49;;;;;;;3.90;3.50;;;;;;;18.94;68.70;100676.79;215501;1277;140481;-68
2022/10/06 09:21:00;;;;;;;4.30;3.80;;;;;;;18.99;68.73;100683.42;215303;1276;142271;-67
2022/10/06 09:26:05;;;;;;;4.70;4.00;;;;;;;18.96;68.83;100687.21;215693;1276;141537;-66
2022/10/06 09:31:20;;;;;;;5.80;4.40;;;;;;;19.15;69.38;100686.77;215758;1276;140479;-67
2022/10/06 09:36:25;;;;;;;7.00;4.10;;;;;;;19.40;69.17;100696.14;215861;1275;140326;-67
2022/10/06 09:41:33;;;;;;;3.70;3.40;;;;;;;19.42;68.90;100707.17;215853;1276;140790;-67
2022/10/06 09:46:40;;;;;;;6.90;4.00;;;;;;;19.44;69.10;100714.65;215606;1276;141104;-67
2022/10/06 09:52:14;;;;;;;4.70;4.20;;;;;;;19.38;68.75;100721.94;215518;1274;141271;-66
2022/10/06 09:57:24;;;;;;;4.20;3.80;;;;;;;19.29;69.00;100724.61;214978;1276;603658;-67
2022/10/06 10:02:39;;;;;;;5.00;4.20;;;;;;;19.40;68.96;100732.86;214049;1276;140787;-67
2022/10/06 10:07:46;;;;;;;4.40;4.10;;;;;;;19.42;68.51;100733.56;215684;1276;141846;-67
2022/10/06 10:12:55;;;;;;;8.00;4.20;;;;;;;19.47;68.63;100742.18;215552;1276;139778;-66
2022/10/06 10:18:04;;;;;;;4.90;4.00;;;;;;;19.58;68.67;100747.56;214940;1275;139987;-65
2022/10/06 10:23:47;;;;;;;4.50;3.40;;;;;;;19.77;68.61;100749.73;215656;1275;141714;-66
2022/10/06 10:29:17;;;;;;;4.50;4.20;;;;;;;20.17;68.27;100747.05;213996;1281;141568;-66
2022/10/06 10:34:42;;;;;;;4.20;3.90;;;;;;;20.26;67.73;100754.55;215452;1276;141318;-66
2022/10/06 10:39:56;;;;;;;6.60;4.20;;;;;;;20.43;67.38;100751.84;215580;1276;141240;-66
2022/10/06 10:45:03;;;;;;;3.50;3.20;;;;;;;20.36;67.01;100762.08;215630;1275;141026;-66
2022/10/06 10:50:16;;;;;;;3.80;2.50;;;;;;;20.14;66.42;100766.64;215588;1275;140926;-66
2022/10/06 10:55:27;;;;;;;3.40;3.00;;;;;;;19.92;66.00;100773.70;215701;1276;141270;-66
2022/10/06 11:00:34;;;;;;;3.80;2.50;;;;;;;19.86;66.03;100775.73;215784;1276;141469;-66
2022/10/06 11:06:00;;;;;;;4.90;2.30;;;;;;;20.07;66.20;100776.98;215794;1276;139953;-66
2022/10/06 11:11:15;;;;;;;3.10;2.90;;;;;;;20.44;65.64;100775.21;215600;1276;141997;-66
2022/10/06 11:16:35;;;;;;;3.90;2.50;;;;;;;20.66;65.38;100774.84;215733;1275;140517;-66
2022/10/06 11:22:11;;;;;;;2.80;2.20;;;;;;;20.59;64.59;100778.38;215679;1276;140739;-66
2022/10/06 11:27:35;;;;;;;2.90;2.70;;;;;;;20.41;64.08;100792.73;214211;1274;141407;-67
2022/10/06 11:33:08;;;;;;;6.80;2.70;;;;;;;20.18;64.52;100797.98;215048;1273;141181;-66
2022/10/06 11:38:11;;;;;;;8.20;3.40;;;;;;;20.03;64.66;100803.80;215625;1276;140269;-66
2022/10/06 11:43:48;;;;;;;3.90;3.00;;;;;;;19.82;64.92;100808.51;215472;1276;140557;-66
2022/10/06 11:48:52;;;;;;;3.30;3.00;;;;;;;19.59;64.64;100814.64;215881;1275;140268;-67
2022/10/06 11:53:55;;;;;;;4.70;2.70;;;;;;;19.46;64.92;100820.75;215878;1276;140936;-66
2022/10/06 11:58:58;;;;;;;3.00;2.70;;;;;;;19.84;65.25;100826.24;213825;1276;140816;-66
2022/10/06 12:04:08;;;;;;;2.80;2.60;;;;;;;20.00;64.72;100832.10;214174;1276;140381;-65
2022/10/06 12:09:27;;;;;;;3.20;3.00;;;;;;;19.91;64.12;100837.12;214842;1276;140391;-65
2022/10/06 12:14:45;;;;;;;2.30;2.10;;;;;;;19.88;63.50;100842.06;215690;1276;141044;-67
2022/10/06 12:20:24;;;;;;;12.30;2.20;;;;;;;20.22;63.38;100845.41;215564;1276;140058;-66
2022/10/06 12:25:41;;;;;;;1.40;1.10;;;;;;;20.60;62.38;100851.58;215660;1274;140594;-66
2022/10/06 12:31:21;;;;;;;2.50;1.50;;;;;;;20.51;60.77;100859.93;215874;1276;141333;-66
2022/10/06 12:36:30;;;;;;;4.10;2.20;;;;;;;20.38;60.03;100864.71;215683;1275;141690;-66
2022/10/06 12:41:52;;;;;;;1.60;1.50;;;;;;;20.20;59.75;100868.86;215119;1276;140786;-66
2022/10/06 12:47:01;;;;;;;4.20;1.60;;;;;;;20.03;59.72;100880.55;215640;1276;141417;-66
2022/10/06 12:52:19;;;;;;;1.90;1.80;;;;;;;19.91;59.56;100885.09;215754;1276;141336;-66
2022/10/06 12:57:27;;;;;;;1.60;1.50;;;;;;;19.83;59.63;100883.30;215672;1276;141028;-66
2022/10/06 13:02:31;;;;;;;2.20;1.60;;;;;;;19.76;59.25;100890.20;215698;1276;140621;-66
2022/10/06 13:08:16;;;;;;;2.20;1.20;;;;;;;19.93;59.49;100901.27;215685;1276;142398;-66
2022/10/06 13:13:24;;;;;;;1.80;1.70;;;;;;;19.96;59.49;100898.84;215311;1276;140777;-65
2022/10/06 13:18:31;;;;;;;2.10;2.00;;;;;;;19.79;59.04;100903.52;215482;1276;141267;-66
2022/10/06 13:23:38;;;;;;;2.90;2.40;;;;;;;19.41;59.03;100911.39;215391;1276;140285;-66
2022/10/06 13:28:47;;;;;;;9.40;2.00;;;;;;;19.06;59.28;100911.11;215463;1276;139833;-65
2022/10/06 13:34:02;;;;;;;3.30;2.30;;;;;;;18.93;59.33;100910.79;215589;1276;140742;-66
2022/10/06 13:39:17;;;;;;;2.00;1.80;;;;;;;18.86;59.70;100920.89;215449;1276;140443;-65
2022/10/06 13:44:37;;;;;;;5.00;2.10;;;;;;;18.72;59.73;100918.84;215382;1276;140729;-65
2022/10/06 13:49:49;;;;;;;11.20;2.10;;;;;;;18.88;59.80;100918.41;215333;1276;140631;-66
2022/10/06 13:54:56;;;;;;;3.20;1.70;;;;;;;19.00;59.50;100915.45;215744;1276;140932;-66
2022/10/06 14:00:22;;;;;;;3.80;2.00;;;;;;;18.98;58.80;100917.27;215490;1276;140971;-64
2022/10/06 14:05:32;;;;;;;4.10;1.90;;;;;;;19.05;58.60;100921.53;215347;1276;140641;-64
2022/10/06 14:11:10;;;;;;;2.70;1.70;;;;;;;19.04;58.39;100927.96;214715;1276;247224;-64
2022/10/06 14:16:24;;;;;;;2.50;1.90;;;;;;;19.00;58.30;100931.88;215309;1276;140868;-68
2022/10/06 14:21:43;;;;;;;3.20;1.70;;;;;;;18.79;58.53;100941.31;213237;1276;140685;-67
2022/10/06 14:26:54;;;;;;;2.40;2.20;;;;;;;18.51;58.98;100946.75;214469;1276;141177;-65
2022/10/06 14:32:08;;;;;;;2.10;1.80;;;;;;;18.39;59.32;100946.46;212255;1276;151145;-65
2022/10/06 14:37:16;;;;;;;3.10;2.00;;;;;;;18.36;59.50;100949.20;215585;1276;140598;-66
2022/10/06 14:42:23;;;;;;;2.60;1.90;;;;;;;18.32;59.53;100950.21;215606;1276;140675;-67
2022/10/06 14:47:26;;;;;;;5.10;2.00;;;;;;;18.33;59.97;100958.59;215347;1277;159610;-67
2022/10/06 14:52:29;;;;;;;1.30;1.20;;;;;;;18.29;59.68;100959.23;215575;1276;140525;-67
2022/10/06 14:57:34;;;;;;;1.60;1.50;;;;;;;18.09;59.61;100962.27;215026;1275;139964;-66
2022/10/06 15:02:38;;;;;;;2.50;1.30;;;;;;;17.98;59.71;100967.02;215623;1276;140923;-65
2022/10/06 15:13:06;;;;;;;2.30;1.60;;;;;;;17.95;60.27;100975.14;215444;1276;140818;-65
2022/10/06 15:18:10;;;;;;;12.60;2.10;;;;;;;17.92;60.40;100981.70;215607;1276;141522;-65
2022/10/06 15:23:12;;;;;;;4.70;1.40;;;;;;;17.79;60.23;100989.09;215507;1276;141726;-65
2022/10/06 15:33:36;;;;;;;2.60;1.80;;;;;;;17.46;60.38;101000.19;215509;1277;141858;-65
2022/10/06 15:38:41;;;;;;;2.60;1.20;;;;;;;17.27;60.53;101009.41;215443;1277;140767;-64
2022/10/06 15:43:56;;;;;;;9.00;1.80;;;;;;;17.03;60.28;101016.60;214859;1277;142079;-65
2022/10/06 15:49:01;;;;;;;1.60;1.30;;;;;;;16.79;60.54;101022.90;215535;1276;141352;-64
2022/10/06 15:54:04;;;;;;;6.40;1.70;;;;;;;16.57;60.67;101029.02;215473;1276;141772;-64
2022/10/06 15:59:07;;;;;;;1.70;1.60;;;;;;;16.35;60.89;101034.61;214705;1276;140522;-64
2022/10/06 16:09:50;;;;;;;2.20;1.70;;;;;;;16.00;61.32;101048.44;215344;1276;140758;-65
2022/10/06 16:14:53;;;;;;;;;;;;;;;15.87;61.51;101054.68;215681;1275;140643;-65
2022/10/06 16:19:56;;;;;;;4.50;2.10;;;;;;;15.70;61.57;101062.77;213978;1277;129274;-64
2022/10/06 16:24:59;;;;;;;2.90;2.20;;;;;;;15.55;61.63;101067.43;215602;1276;151660;-65
2022/10/06 16:30:02;;;;;;;5.20;1.80;;;;;;;15.39;61.98;101079.52;215296;1276;140966;-65
2022/10/06 16:35:09;;;;;;;7.30;1.80;;;;;;;15.20;61.96;101081.55;214754;1276;140815;-65
2022/10/06 16:40:21;;;;;;;5.10;2.20;;;;;;;15.05;62.21;101092.12;213380;1276;142024;-65
2022/10/06 16:45:24;;;;;;;3.70;1.50;;;;;;;14.94;62.44;101096.38;215666;1276;142368;-65
2022/10/06 16:50:27;;;;;;;6.10;2.80;;;;;;;14.78;62.70;101110.66;214978;1276;141469;-65
2022/10/06 16:55:30;;;;;;;6.50;2.80;;;;;;;14.58;63.02;101121.58;215442;1276;143426;-64
2022/10/06 17:00:33;;;;;;;12.80;2.50;;;;;;;14.37;63.02;101126.07;215705;1276;140971;-64
2022/10/06 17:05:39;;;;;;;7.50;2.10;;;;;;;14.15;63.45;101134.17;215514;1276;142232;-64
2022/10/06 17:10:58;;;;;;;4.10;1.80;;;;;;;13.91;63.76;101141.13;215564;1276;142096;-65
2022/10/06 17:16:08;;;;;;;4.40;1.80;;;;;;;13.63;63.92;101151.54;215442;1276;141283;-64
2022/10/06 17:21:17;;;;;;;18.30;2.00;;;;;;;13.40;64.54;101152.56;215397;1276;141000;-65
2022/10/06 17:26:46;;;;;;;10.20;2.10;;;;;;;13.21;64.58;101156.45;215672;1276;140386;-65
2022/10/06 17:31:54;;;;;;;4.10;1.80;;;;;;;13.03;65.20;101165.62;215464;1276;141975;-65
2022/10/06 17:36:58;;;;;;;4.80;1.50;;;;;;;12.85;65.43;101168.86;215564;1276;244913;-66
2022/10/06 17:42:01;;;;;;;12.30;2.90;;;;;;;12.66;65.56;101169.20;215550;1276;141159;-65
2022/10/06 17:47:11;;;;;;;13.00;2.10;;;;;;;12.46;65.85;101165.27;214857;1277;140582;-65
2022/10/06 17:52:14;;;;;;;12.20;2.90;;;;;;;12.32;66.15;101168.36;215391;1276;141107;-65
2022/10/06 17:57:24;;;;;;;3.30;1.50;;;;;;;12.23;66.16;101171.30;212404;1275;142431;-66
2022/10/06 18:02:26;;;;;;;1.60;1.40;;;;;;;12.09;66.49;101171.06;215495;1276;140459;-66
2022/10/06 18:07:29;;;;;;;5.40;1.90;;;;;;;11.87;66.59;101177.44;214522;1276;140277;-65
2022/10/06 18:12:35;;;;;;;3.70;1.80;;;;;;;11.65;66.89;101185.73;215095;1276;140255;-65
2022/10/06 18:17:40;;;;;;;6.60;2.60;;;;;;;11.46;67.13;101186.77;215537;1276;141202;-66
2022/10/06 18:22:47;;;;;;;6.30;2.70;;;;;;;11.29;67.20;101188.84;215187;1276;141118;-65
2022/10/06 18:27:51;;;;;;;3.70;2.50;;;;;;;11.16;67.53;101198.61;215218;1276;140956;-65
2022/10/06 18:32:54;;;;;;;2.30;1.60;;;;;;;11.01;67.65;101211.09;214737;1276;139940;-65
2022/10/06 18:38:21;;;;;;;5.10;2.20;;;;;;;10.87;68.16;101208.43;215776;1276;140082;-65
2022/10/06 18:43:28;;;;;;;4.60;2.30;;;;;;;10.76;68.26;101215.48;215302;1276;140725;-65
2022/10/06 18:53:54;;;;;;;4.00;2.50;;;;;;;10.53;68.67;101225.77;215665;1276;140532;-65
2022/10/06 18:58:59;;;;;;;7.10;2.90;;;;;;;10.39;68.63;101231.41;215751;1276;140268;-64
2022/10/06 19:04:04;;;;;;;5.50;3.10;;;;;;;10.17;68.61;101238.43;214582;1276;140143;-64
2022/10/06 19:09:07;;;;;;;9.00;3.10;;;;;;;9.98;68.68;101242.60;215650;1275;141397;-64
2022/10/06 19:14:12;;;;;;;5.80;3.30;;;;;;;9.85;69.08;101242.83;215549;1276;140417;-64
2022/10/06 19:19:20;;;;;;;12.20;5.90;;;;;;;9.63;69.14;101245.02;215524;1276;139946;-63
2022/10/06 19:24:23;;;;;;;11.30;6.30;;;;;;;9.40;69.43;101247.23;215684;1276;141675;-64
2022/10/06 19:29:35;;;;;;;13.30;8.60;;;;;;;9.26;69.79;101252.32;215602;1276;140504;-64
2022/10/06 19:34:39;;;;;;;13.60;8.70;;;;;;;9.23;70.14;101256.83;215680;1276;141285;-64
2022/10/06 19:39:44;;;;;;;9.10;6.90;;;;;;;9.16;70.14;101258.04;215442;1276;141000;-64
2022/10/06 19:44:46;;;;;;;11.50;7.10;;;;;;;9.10;70.42;101265.60;215521;1276;140419;-64
2022/10/06 19:49:49;;;;;;;14.70;8.00;;;;;;;9.03;70.28;101266.09;215609;1276;141147;-64
2022/10/06 19:54:53;;;;;;;15.20;8.30;;;;;;;8.89;70.69;101272.05;215546;1276;141774;-65
2022/10/06 20:00:00;;;;;;;13.50;7.60;;;;;;;8.76;70.87;101272.09;215583;1276;140267;-63
2022/10/06 20:05:03;;;;;;;12.70;8.80;;;;;;;8.56;70.69;101273.54;215541;1275;141056;-64
2022/10/06 20:10:07;;;;;;;18.60;11.60;;;;;;;8.44;71.17;101284.30;215616;1276;141837;-65
2022/10/06 20:15:11;;;;;;;13.20;9.90;;;;;;;8.36;71.19;101288.84;214212;1275;142548;-64
2022/10/06 20:20:16;;;;;;;21.50;12.70;;;;;;;8.34;71.51;101289.39;212993;1276;164532;-64
2022/10/06 20:25:19;;;;;;;22.60;12.40;;;;;;;8.29;71.53;101293.17;215540;1275;142304;-64
2022/10/06 20:30:21;;;;;;;20.50;14.00;;;;;;;8.16;71.58;101299.02;212574;1276;154080;-63
2022/10/06 20:35:25;;;;;;;18.70;11.30;;;;;;;8.09;71.89;101300.34;214347;1276;140068;-63
2022/10/06 20:40:45;;;;;;;16.70;10.30;;;;;;;8.01;71.88;101300.73;214252;1275;140960;-64
2022/10/06 20:45:52;;;;;;;18.30;11.90;;;;;;;7.92;71.91;101306.73;215371;1276;141096;-65
2022/10/06 20:50:56;;;;;;;19.30;13.00;;;;;;;7.89;72.30;101311.01;215495;1276;141477;-64
2022/10/06 20:55:59;;;;;;;22.90;11.20;;;;;;;7.82;72.09;101313.66;215393;1276;141096;-64
2022/10/06 21:01:10;;;;;;;16.20;11.70;;;;;;;7.64;72.01;101312.20;214750;1276;140802;-65
2022/10/06 21:06:13;;;;;;;17.60;11.40;;;;;;;7.58;72.13;101307.08;215606;1276;142514;-66
2022/10/06 21:11:21;;;;;;;15.50;12.10;;;;;;;7.48;72.19;101309.91;215440;1276;141735;-66
2022/10/06 21:16:26;;;;;;;18.30;10.50;;;;;;;7.40;72.33;101315.63;215587;1276;141832;-65
2022/10/06 21:21:29;;;;;;;19.20;12.50;;;;;;;7.40;72.98;101313.96;215627;1274;140529;-65
2022/10/06 21:26:33;;;;;;;18.90;12.60;;;;;;;7.29;72.71;101309.17;215535;1276;140262;-65
2022/10/06 21:31:36;;;;;;;21.50;12.70;;;;;;;7.08;72.60;101312.92;215333;1276;141475;-65
2022/10/06 21:36:39;;;;;;;23.20;13.40;;;;;;;6.95;72.84;101311.77;215442;1276;143003;-65
2022/10/06 21:41:41;;;;;;;21.30;12.50;;;;;;;6.95;73.22;101314.09;215567;1276;142326;-65
2022/10/06 21:46:48;;;;;;;15.10;11.20;;;;;;;6.92;73.08;101318.08;215161;1277;141916;-65
2022/10/06 21:51:54;;;;;;;13.60;10.80;;;;;;;6.88;73.33;101317.83;215354;1277;140884;-65
2022/10/06 21:57:03;;;;;;;18.70;12.00;;;;;;;6.86;73.66;101314.23;214849;1276;1204629;-65
2022/10/06 22:02:05;;;;;;;13.00;10.70;;;;;;;6.80;73.65;101313.64;215300;1276;152711;-64
2022/10/06 22:07:08;;;;;;;18.00;11.80;;;;;;;6.77;73.25;101314.61;215314;1276;141200;-65
2022/10/06 22:12:13;;;;;;;16.20;9.10;;;;;;;6.67;73.43;101313.71;215607;1276;141740;-65
2022/10/06 22:17:16;;;;;;;16.90;10.60;;;;;;;6.49;73.18;101316.92;215538;1276;221033;-64
2022/10/06 22:22:19;;;;;;;18.70;10.20;;;;;;;6.42;73.83;101317.54;215540;1276;140260;-65
2022/10/06 22:27:22;;;;;;;15.20;11.10;;;;;;;6.33;73.65;101323.59;213850;1276;140970;-64
2022/10/06 22:32:25;;;;;;;18.00;10.60;;;;;;;6.25;73.82;101324.55;215348;1274;143349;-65
2022/10/06 22:37:27;;;;;;;15.20;10.70;;;;;;;6.21;74.16;101326.74;213320;1276;142197;-64
2022/10/06 22:42:29;;;;;;;18.50;10.60;;;;;;;6.24;74.59;101325.33;212526;1276;142116;-63
2022/10/06 22:47:31;;;;;;;9.50;8.40;;;;;;;6.24;74.38;101332.73;214572;1276;142852;-64
2022/10/06 22:52:34;;;;;;;14.40;9.90;;;;;;;6.09;74.19;101331.56;215401;1276;140674;-64
2022/10/06 22:57:37;;;;;;;10.50;9.40;;;;;;;5.94;74.36;101328.45;215346;1276;140023;-64
2022/10/06 23:02:40;;;;;;;11.80;8.30;;;;;;;5.91;74.64;101326.30;215568;1275;141005;-64
2022/10/06 23:07:43;;;;;;;16.60;10.00;;;;;;;5.92;74.90;101328.45;214746;1276;142076;-63
2022/10/06 23:12:46;;;;;;;12.90;8.40;;;;;;;5.94;75.07;101329.67;215325;1276;140706;-63
2022/10/06 23:17:48;;;;;;;15.90;8.90;;;;;;;5.92;74.77;101335.36;215406;1276;142074;-63
2022/10/06 23:22:54;;;;;;;18.50;10.90;;;;;;;5.77;74.52;101333.08;215658;1275;140667;-63
2022/10/06 23:27:56;;;;;;;15.90;9.20;;;;;;;5.66;74.85;101336.71;215360;1276;141337;-63
2022/10/06 23:32:58;;;;;;;24.10;9.70;;;;;;;5.71;74.97;101333.05;215496;1276;142098;-63
2022/10/06 23:38:00;;;;;;;12.40;8.30;;;;;;;5.68;74.90;101329.27;215349;1276;140709;-63
2022/10/06 23:43:02;;;;;;;15.60;11.10;;;;;;;5.63;75.15;101329.95;215633;1276;139908;-63
2022/10/06 23:48:05;;;;;;;11.90;9.10;;;;;;;5.62;75.10;101331.51;215660;1276;140866;-62